ADDS METAR Data INFO
IDs: Format: Raw Decoded Include TAF

Data at: 1349 UTC 17 Dec 2017

KRBL 171254Z AUTO 36014G19KT 10SM CLR 11/M08 A3012 RMK AO2 SLP199 T01061078
KRBL 171154Z AUTO 36015G26KT 10SM CLR 11/M08 A3012 RMK AO2 PK WND 34026/1149 SLP198 T01111078 10122 20106 51002
KRBL 171054Z AUTO 35014G22KT 10SM CLR 11/M07 A3012 RMK AO2 SLP197 T01061072
KRBL 170954Z AUTO 35018G24KT 10SM CLR 11/M08 A3012 RMK AO2 PK WND 35029/0910 SLP199 T01111078
KRBL 170854Z AUTO 35017G26KT 10SM CLR 11/M08 A3011 RMK AO2 PK WND 35028/0800 SLP196 T01111078 50010
KRBL 170754Z AUTO 34019G26KT 10SM CLR 12/M08 A3012 RMK AO2 PK WND 35033/0734 SLP198 T01171083 401610100
KRBL 170654Z AUTO 34021G26KT 10SM CLR 12/M08 A3010 RMK AO2 PK WND 34034/0634 SLP191 T01171078
KRBL 170554Z AUTO 34019G30KT 10SM CLR 12/M08 A3008 RMK AO2 PK WND 34030/0546 SLP186 T01221083 10150 20117 51006
KRBL 170454Z AUTO 34016G29KT 10SM CLR 12/M09 A3008 RMK AO2 PK WND 35029/0445 SLP185 T01221089
KRBL 170354Z AUTO 34014G20KT 10SM CLR 12/M08 A3007 RMK AO2 PK WND 35026/0258 SLP182 T01221083
KRBL 170254Z AUTO 35018G28KT 10SM CLR 13/M08 A3006 RMK AO2 PK WND 34029/0217 SLP180 T01281083 50003
KRBL 170154Z AUTO 35021G29KT 10SM CLR 13/M08 A3007 RMK AO2 PK WND 36032/0127 SLP181 T01331078
KRBL 170054Z AUTO 36017G29KT 10SM CLR 14/M09 A3007 RMK AO2 PK WND 35032/0019 SLP180 T01441094
KRBL 162354Z AUTO 35023G31KT 10SM CLR 15/M09 A3006 RMK AO2 PK WND 34034/2301 SLP177 T01501094 10161 20128 55009
KRBL 162254Z AUTO 35023G38KT 10SM CLR 16/M09 A3005 RMK AO2 PK WND 35040/2234 SLP173 T01561089
KRBL 162154Z AUTO 36024G38KT 10SM CLR 16/M09 A3007 RMK AO2 PK WND 36038/2152 SLP182 T01561089
KRBL 162054Z AUTO 35027G35KT 10SM CLR 16/M07 A3008 RMK AO2 PK WND 35042/2007 SLP185 T01561072 56016
KRBL 161954Z AUTO 36025G33KT 10SM CLR 15/M07 A3009 RMK AO2 PK WND 01036/1943 SLP190 T01501072
KRBL 161854Z AUTO 35023G31KT 10SM CLR 14/M06 A3012 RMK AO2 PK WND 35031/1850 SLP197 T01391056
KRBL 161754Z AUTO 33012G21KT 10SM CLR 13/M04 A3013 RMK AO2 PK WND 32027/1730 SLP203 T01281039 10128 20100 51005
KRBL 161654Z AUTO 33022G27KT 10SM CLR 12/M04 A3013 RMK AO2 PK WND 33027/1620 SLP201 T01171039
KRBL 161554Z AUTO 33020G27KT 10SM CLR 11/M04 A3013 RMK AO2 PK WND 33028/1544 SLP203 T01061044
KRBL 161454Z AUTO 33014G25KT 10SM CLR 11/M04 A3012 RMK AO2 SLP197 T01061044 53004
KRBL 161354Z AUTO 33016KT 10SM CLR 10/M04 A3011 RMK AO2 SLP194 T01001044
KRBL 161254Z AUTO 31010G20KT 10SM CLR 11/M04 A3011 RMK AO2 PK WND 33027/1213 SLP194 T01061039
KRBL 161154Z AUTO 34014G24KT 10SM CLR 11/M04 A3010 RMK AO2 PK WND 36033/1122 SLP193 T01111044 10139 20111 51013
KRBL 161054Z AUTO 33017G27KT 10SM CLR 12/M02 A3010 RMK AO2 PK WND 34027/1015 SLP191 T01171022
KRBL 160954Z AUTO 34020G28KT 10SM CLR 12/M02 A3008 RMK AO2 PK WND 33028/0954 SLP185 T01221017
KRBL 160854Z AUTO 35018G25KT 10SM CLR 13/M02 A3007 RMK AO2 PK WND 35030/0833 SLP179 T01281017 51003
KRBL 160754Z AUTO 33009KT 10SM CLR 12/02 A3007 RMK AO2 SLP180 T01170017 401440033
KRBL 160654Z AUTO 34013KT 10SM CLR 13/03 A3007 RMK AO2 SLP180 T01330028
KRBL 160554Z AUTO 34010KT 10SM CLR 12/03 A3006 RMK AO2 SLP177 T01170033 10122 20094 53002
KRBL 160454Z AUTO 35007KT 10SM FEW085 11/04 A3004 RMK AO2 SLP174 T01060039
KRBL 160354Z AUTO 32005KT 10SM BKN110 12/04 A3005 RMK AO2 SLP176 T01170044
KRBL 160254Z AUTO 34008KT 10SM FEW070 BKN095 OVC110 12/04 A3005 RMK AO2 SLP176 T01170039 58008
KRBL 160154Z AUTO 30003KT 10SM CLR 11/04 A3007 RMK AO2 SLP183 T01110044